createdAt,value
2018-12-13T00:01:13.965Z,34.27
2018-12-13T00:03:57.566Z,32.83
2018-12-13T00:06:39.314Z,37.20
2018-12-13T00:09:21.096Z,39.90
2018-12-13T00:12:02.803Z,39.67
2018-12-13T00:14:45.121Z,42.70
2018-12-13T00:17:26.915Z,36.80
2018-12-13T00:20:09.040Z,35.87
2018-12-13T00:22:51.044Z,35.80
2018-12-13T00:25:33.323Z,36.70
2018-12-13T00:28:14.606Z,35.23
2018-12-13T00:30:56.348Z,36.87
2018-12-13T00:33:38.011Z,35.50
2018-12-13T00:36:19.975Z,35.17
2018-12-13T00:39:01.542Z,36.47
2018-12-13T00:41:45.136Z,36.03
2018-12-13T00:44:27.469Z,35.28
2018-12-13T00:47:08.643Z,34.87
2018-12-13T00:49:49.975Z,37.73
2018-12-13T00:52:31.317Z,35.10
2018-12-13T00:55:13.076Z,40.03
2018-12-13T00:57:54.879Z,36.93
2018-12-13T01:00:36.698Z,37.17
2018-12-13T01:03:18.340Z,38.57
2018-12-13T01:06:00.400Z,40.77
2018-12-13T01:08:41.995Z,36.43
2018-12-13T01:11:24.222Z,37.57
2018-12-13T01:14:07.368Z,38.63
2018-12-13T01:16:48.791Z,44.75
2018-12-13T01:19:30.227Z,40.93
2018-12-13T01:22:13.168Z,36.33
2018-12-13T01:24:54.904Z,39.63
2018-12-13T01:27:37.457Z,36.23
2018-12-13T01:30:19.055Z,38.30
2018-12-13T01:33:00.773Z,37.70
2018-12-13T01:35:42.382Z,42.73
2018-12-13T01:38:24.178Z,39.80
2018-12-13T01:41:05.809Z,42.10
2018-12-13T01:43:47.432Z,43.30
2018-12-13T01:46:29.060Z,39.87
2018-12-13T01:49:11.010Z,42.60
2018-12-13T01:51:52.931Z,44.17
2018-12-13T01:54:34.480Z,38.43
2018-12-13T01:57:16.329Z,39.47
2018-12-13T01:59:59.112Z,38.37
2018-12-13T02:02:41.413Z,40.40
2018-12-13T02:05:22.703Z,41.17
2018-12-13T02:08:04.088Z,36.50
2018-12-13T02:10:45.850Z,38.33
2018-12-13T02:13:27.747Z,38.93
2018-12-13T02:16:09.351Z,37.37
2018-12-13T02:18:50.471Z,42.23
2018-12-13T02:21:34.715Z,42.37
2018-12-13T02:24:16.508Z,36.20
2018-12-13T02:26:57.875Z,39.60
2018-12-13T02:29:39.359Z,37.97
2018-12-13T02:32:20.964Z,42.63
2018-12-13T02:35:04.241Z,43.50
2018-12-13T02:37:46.324Z,38.60
2018-12-13T02:40:28.671Z,40.83
2018-12-13T02:43:10.246Z,40.30
2018-12-13T02:45:53.289Z,46.27
2018-12-13T02:48:34.912Z,40.13
2018-12-13T02:51:16.472Z,39.90
2018-12-13T02:53:59.971Z,42.20
2018-12-13T02:56:42.024Z,44.57
2018-12-13T02:59:23.266Z,40.37
2018-12-13T03:02:05.542Z,45.20
2018-12-13T03:04:47.699Z,40.70
2018-12-13T03:07:29.708Z,45.23
2018-12-13T03:10:11.616Z,43.67
2018-12-13T03:12:53.636Z,44.97
2018-12-13T03:15:35.674Z,42.33
2018-12-13T03:18:17.294Z,44.67
2018-12-13T03:20:58.851Z,41.60
2018-12-13T03:23:40.464Z,43.33
2018-12-13T03:26:22.027Z,41.47
2018-12-13T03:29:04.302Z,42.53
2018-12-13T03:31:45.849Z,41.90
2018-12-13T03:34:28.051Z,41.80
2018-12-13T03:37:09.458Z,42.40
2018-12-13T03:39:50.652Z,37.93
2018-12-13T03:42:31.940Z,40.67
2018-12-13T03:45:13.166Z,46.40
2018-12-13T03:47:54.803Z,41.33
2018-12-13T03:50:36.534Z,43.17
2018-12-13T03:53:18.282Z,44.43
2018-12-13T03:55:59.419Z,39.20
2018-12-13T03:58:41.640Z,48.23
2018-12-13T04:01:24.662Z,42.40
2018-12-13T04:04:06.829Z,43.63
2018-12-13T04:06:48.104Z,43.07
2018-12-13T04:09:29.310Z,42.47
2018-12-13T04:12:10.892Z,40.57
2018-12-13T04:14:52.635Z,41.07
2018-12-13T04:17:34.437Z,42.80
2018-12-13T04:20:23.158Z,42.00
2018-12-13T04:23:05.486Z,41.80
2018-12-13T04:26:07.430Z,45.60
2018-12-13T04:28:52.875Z,44.27
2018-12-13T04:31:41.435Z,43.13
2018-12-13T04:34:22.822Z,44.83
2018-12-13T04:37:09.871Z,40.40
2018-12-13T04:39:51.862Z,40.37
2018-12-13T04:45:20.742Z,41.80
2018-12-13T04:48:02.291Z,40.33
2018-12-13T04:50:43.937Z,41.87
2018-12-13T04:53:25.472Z,41.63
2018-12-13T04:56:06.813Z,42.90
2018-12-13T04:58:49.745Z,45.20
2018-12-13T05:01:31.834Z,37.80
2018-12-13T05:04:13.627Z,47.40
2018-12-13T05:06:55.341Z,42.97
2018-12-13T05:09:36.520Z,41.10
2018-12-13T05:12:17.774Z,44.80
2018-12-13T05:14:59.880Z,46.63
2018-12-13T05:17:41.808Z,44.17
2018-12-13T05:20:23.501Z,44.30
2018-12-13T05:23:05.113Z,44.77
2018-12-13T05:25:47.497Z,45.20
2018-12-13T05:28:28.748Z,42.93
2018-12-13T05:31:10.371Z,43.90
2018-12-13T05:33:52.001Z,42.77
2018-12-13T05:36:33.748Z,43.17
2018-12-13T05:39:14.950Z,44.10
2018-12-13T05:41:56.575Z,44.13
2018-12-13T05:44:38.840Z,46.13
2018-12-13T05:47:21.488Z,41.77
2018-12-13T05:50:04.121Z,42.43
2018-12-13T05:52:47.349Z,45.20
2018-12-13T05:55:30.143Z,45.13
2018-12-13T05:58:11.892Z,43.83
2018-12-13T06:00:54.219Z,42.62
2018-12-13T06:03:35.660Z,43.47
2018-12-13T06:06:19.294Z,42.27
2018-12-13T06:09:00.857Z,39.50
2018-12-13T06:11:42.769Z,46.77
2018-12-13T06:14:25.431Z,42.23
2018-12-13T06:17:06.816Z,39.30
2018-12-13T06:19:48.634Z,42.80
2018-12-13T06:22:30.016Z,43.40
2018-12-13T06:25:12.259Z,43.23
2018-12-13T06:27:53.889Z,41.47
2018-12-13T06:30:35.275Z,42.77
2018-12-13T06:33:16.698Z,38.37
2018-12-13T06:35:58.372Z,39.03
2018-12-13T06:38:40.059Z,40.50
2018-12-13T06:41:22.149Z,41.77
2018-12-13T06:44:04.252Z,41.43
2018-12-13T06:46:46.074Z,41.30
2018-12-13T06:49:27.743Z,44.07
2018-12-13T06:52:08.955Z,40.83
2018-12-13T06:54:50.306Z,42.87
2018-12-13T06:57:32.087Z,43.83
2018-12-13T07:00:14.295Z,41.97
2018-12-13T07:02:56.009Z,43.47
2018-12-13T07:05:37.365Z,47.47
2018-12-13T07:08:23.862Z,45.67
2018-12-13T07:11:05.583Z,45.03
2018-12-13T07:13:48.101Z,43.75
2018-12-13T07:16:30.024Z,39.38
2018-12-13T07:19:12.998Z,44.50
2018-12-13T07:22:01.990Z,44.43
2018-12-13T07:24:45.746Z,44.83
2018-12-13T07:27:27.132Z,47.40
2018-12-13T07:30:10.422Z,46.73
2018-12-13T07:32:51.905Z,46.30
2018-12-13T07:35:34.627Z,43.98
2018-12-13T07:38:17.424Z,43.63
2018-12-13T07:40:59.643Z,44.05
2018-12-13T07:43:40.867Z,43.60
2018-12-13T07:46:22.605Z,42.13
2018-12-13T07:49:04.617Z,39.67
2018-12-13T07:51:46.829Z,53.03
2018-12-13T07:54:28.478Z,61.50
2018-12-13T07:57:09.890Z,53.37
2018-12-13T07:59:52.372Z,49.08
2018-12-13T08:02:33.646Z,46.63
2018-12-13T08:05:15.689Z,42.00
2018-12-13T08:07:57.377Z,41.75
2018-12-13T08:10:39.334Z,41.77
2018-12-13T08:13:21.407Z,46.67
2018-12-13T08:16:03.126Z,40.73
2018-12-13T08:18:46.459Z,43.97
2018-12-13T08:21:28.556Z,45.35
2018-12-13T08:24:09.974Z,43.20
2018-12-13T08:26:52.876Z,45.07
2018-12-13T08:29:34.960Z,53.50
2018-12-13T08:32:16.808Z,49.58
2018-12-13T08:34:58.838Z,43.58
2018-12-13T08:37:39.996Z,42.65
2018-12-13T08:40:21.576Z,43.10
2018-12-13T08:43:03.031Z,45.33
2018-12-13T08:45:45.188Z,43.33
2018-12-13T08:48:29.910Z,48.45
2018-12-13T08:51:11.678Z,47.20
2018-12-13T08:53:53.663Z,51.23
2018-12-13T08:56:35.144Z,47.95
2018-12-13T08:59:16.824Z,49.17
2018-12-13T09:01:58.812Z,44.23
2018-12-13T09:04:40.408Z,42.48
2018-12-13T09:07:21.792Z,43.68
2018-12-13T09:10:04.555Z,42.63
2018-12-13T09:12:45.893Z,45.73
2018-12-13T09:15:27.946Z,48.87
2018-12-13T09:18:09.756Z,46.90
2018-12-13T09:20:51.422Z,45.30
2018-12-13T09:23:33.298Z,51.83
2018-12-13T09:26:16.074Z,48.78
2018-12-13T09:28:57.697Z,55.33
2018-12-13T09:31:38.904Z,48.27
2018-12-13T09:34:20.163Z,50.23
2018-12-13T09:37:02.096Z,52.55
2018-12-13T09:39:43.714Z,55.13
2018-12-13T09:42:25.811Z,47.80
2018-12-13T09:45:10.394Z,48.80
2018-12-13T09:47:52.176Z,46.53
2018-12-13T09:50:33.462Z,48.33
2018-12-13T09:53:14.926Z,49.48
2018-12-13T09:55:56.882Z,52.38
2018-12-13T09:58:38.773Z,50.08
2018-12-13T10:01:20.558Z,54.67
2018-12-13T10:04:02.167Z,57.85
2018-12-13T10:06:45.317Z,65.67
2018-12-13T10:09:27.072Z,66.00
2018-12-13T10:12:08.650Z,59.27
2018-12-13T10:14:49.988Z,59.25
2018-12-13T10:17:31.419Z,60.08
2018-12-13T10:20:13.874Z,58.00
2018-12-13T10:22:55.882Z,49.03
2018-12-13T10:25:37.853Z,53.95
2018-12-13T10:28:20.188Z,51.68
2018-12-13T10:31:02.270Z,48.07
2018-12-13T10:33:44.005Z,49.25
2018-12-13T10:36:26.021Z,51.80
2018-12-13T10:39:09.559Z,49.65
2018-12-13T10:41:51.404Z,48.92
2018-12-13T10:44:36.578Z,44.30
2018-12-13T10:47:18.688Z,51.48
2018-12-13T10:50:01.256Z,44.38
2018-12-13T10:52:42.542Z,48.28
2018-12-13T10:55:24.780Z,50.30
2018-12-13T10:58:06.233Z,49.35
2018-12-13T11:00:53.530Z,45.20
2018-12-13T11:03:36.241Z,40.47
2018-12-13T11:06:17.787Z,37.33
2018-12-13T11:08:59.662Z,46.58
2018-12-13T11:11:42.732Z,40.87
2018-12-13T11:14:24.527Z,39.60
2018-12-13T11:17:06.201Z,41.73
2018-12-13T11:19:47.804Z,42.33
2018-12-13T11:22:28.978Z,36.77
2018-12-13T11:25:10.741Z,39.73
2018-12-13T11:30:36.840Z,38.60
2018-12-13T11:33:19.084Z,36.15
2018-12-13T11:36:00.303Z,29.92
2018-12-13T11:38:41.892Z,37.67
2018-12-13T11:41:23.198Z,37.00
2018-12-13T11:44:05.287Z,34.63
2018-12-13T11:46:47.520Z,32.08
2018-12-13T11:49:28.962Z,33.15
2018-12-13T11:52:11.167Z,33.13
2018-12-13T11:54:53.591Z,31.35
2018-12-13T11:57:36.187Z,30.27
2018-12-13T12:00:19.020Z,32.20
2018-12-13T12:03:00.598Z,30.35
2018-12-13T12:05:42.233Z,33.33
2018-12-13T12:08:24.165Z,30.50
2018-12-13T12:11:06.144Z,34.23
2018-12-13T12:13:48.364Z,31.07
2018-12-13T12:16:30.484Z,29.85
2018-12-13T12:19:12.687Z,29.37
2018-12-13T12:21:54.179Z,32.90
2018-12-13T12:24:35.635Z,33.50
2018-12-13T12:27:18.275Z,31.02
2018-12-13T12:29:59.578Z,31.15
2018-12-13T12:32:41.439Z,34.90
2018-12-13T12:35:23.574Z,31.52
2018-12-13T12:38:06.137Z,33.65
2018-12-13T12:40:48.034Z,35.13
2018-12-13T12:43:30.666Z,35.15
2018-12-13T12:46:13.565Z,35.15
2018-12-13T12:48:56.197Z,34.43
2018-12-13T12:51:38.012Z,34.53
2018-12-13T12:54:19.873Z,35.63
2018-12-13T12:57:02.765Z,36.15
2018-12-13T12:59:44.281Z,33.00
2018-12-13T13:02:27.002Z,38.60
2018-12-13T13:05:15.144Z,32.65
2018-12-13T13:07:57.801Z,37.67
2018-12-13T13:10:40.384Z,37.00
2018-12-13T13:13:21.570Z,30.85
2018-12-13T13:16:03.264Z,38.78
2018-12-13T13:18:44.577Z,50.80
2018-12-13T13:21:26.330Z,37.95
2018-12-13T13:24:07.564Z,31.35
2018-12-13T13:26:49.849Z,36.13
2018-12-13T13:29:31.932Z,39.27
2018-12-13T13:34:57.809Z,32.90
2018-12-13T13:37:40.251Z,37.70
2018-12-13T13:40:26.629Z,33.40
2018-12-13T13:43:07.882Z,37.50
2018-12-13T13:45:49.693Z,40.17
2018-12-13T13:48:31.584Z,39.53
2018-12-13T13:51:13.587Z,35.28
2018-12-13T13:53:55.319Z,38.50
2018-12-13T13:56:37.584Z,30.32
2018-12-13T13:59:19.457Z,35.70
2018-12-13T14:02:01.815Z,31.30
2018-12-13T14:04:43.960Z,32.63
2018-12-13T14:07:25.376Z,30.32
2018-12-13T14:10:08.381Z,31.20
2018-12-13T14:12:50.098Z,38.15
2018-12-13T14:15:32.553Z,34.95
2018-12-13T14:18:14.704Z,33.63
2018-12-13T14:20:56.544Z,29.52
2018-12-13T14:23:38.296Z,31.95
2018-12-13T14:26:20.214Z,31.20
2018-12-13T14:29:01.822Z,33.93
2018-12-13T14:31:43.147Z,28.85
2018-12-13T14:34:24.617Z,32.00
2018-12-13T14:37:06.358Z,31.87
2018-12-13T14:39:47.497Z,29.00
2018-12-13T14:42:31.337Z,38.13
2018-12-13T14:45:13.051Z,35.52
2018-12-13T14:47:54.413Z,34.25
2018-12-13T14:50:36.249Z,32.58
2018-12-13T14:56:03.819Z,30.12
2018-12-13T14:58:46.241Z,34.20
2018-12-13T15:01:27.707Z,33.75
2018-12-13T15:04:09.792Z,31.05
2018-12-13T15:06:51.090Z,34.65
2018-12-13T15:09:33.166Z,32.00
2018-12-13T15:12:14.594Z,34.63
2018-12-13T15:14:57.441Z,36.75
2018-12-13T15:17:38.765Z,37.35
2018-12-13T15:20:20.208Z,38.23
2018-12-13T15:23:01.669Z,30.32
2018-12-13T15:25:43.903Z,36.65
2018-12-13T15:28:25.517Z,35.30
2018-12-13T15:31:07.220Z,35.75
2018-12-13T15:33:48.361Z,39.05
2018-12-13T15:36:30.048Z,36.40
2018-12-13T15:39:12.096Z,43.23
2018-12-13T15:41:53.576Z,42.90
2018-12-13T15:44:35.475Z,46.00
2018-12-13T15:47:17.983Z,45.70
2018-12-13T15:49:59.346Z,37.55
2018-12-13T15:52:41.086Z,43.58
2018-12-13T15:55:23.155Z,46.33
2018-12-13T15:58:05.265Z,41.60
2018-12-13T16:00:47.321Z,46.65
2018-12-13T16:03:28.810Z,51.65
2018-12-13T16:06:10.589Z,50.65
2018-12-13T16:08:52.559Z,50.98
2018-12-13T16:11:34.115Z,43.87
2018-12-13T16:14:15.492Z,48.90
2018-12-13T16:16:57.603Z,48.20
2018-12-13T16:19:39.855Z,39.55
2018-12-13T16:22:22.592Z,47.90
2018-12-13T16:25:04.714Z,45.90
2018-12-13T16:27:46.643Z,42.13
2018-12-13T16:30:27.907Z,44.33
2018-12-13T16:33:09.749Z,40.48
2018-12-13T16:35:52.013Z,46.83
2018-12-13T16:38:34.909Z,46.00
2018-12-13T16:41:16.595Z,47.38
2018-12-13T16:43:58.782Z,48.40
2018-12-13T16:46:41.094Z,46.73
2018-12-13T16:49:22.999Z,48.98
2018-12-13T16:52:04.784Z,49.88
2018-12-13T16:54:46.966Z,46.90
2018-12-13T16:57:30.647Z,47.40
2018-12-13T17:00:13.191Z,46.42
2018-12-13T17:02:54.990Z,50.48
2018-12-13T17:05:36.264Z,45.83
2018-12-13T17:08:18.611Z,42.80
2018-12-13T17:11:00.293Z,47.75
2018-12-13T17:13:41.743Z,45.20
2018-12-13T17:16:23.381Z,52.48
2018-12-13T17:19:04.960Z,48.75
2018-12-13T17:21:46.660Z,47.95
2018-12-13T17:24:29.760Z,49.05
2018-12-13T17:27:12.527Z,51.28
2018-12-13T17:29:54.377Z,47.50
2018-12-13T17:32:36.281Z,43.52
2018-12-13T17:35:19.037Z,38.20
2018-12-13T17:38:01.167Z,42.08
2018-12-13T17:40:43.211Z,42.50
2018-12-13T17:43:24.885Z,40.43
2018-12-13T17:46:07.416Z,43.80
2018-12-13T17:48:51.169Z,37.28
2018-12-13T17:51:33.508Z,39.60
2018-12-13T17:54:15.782Z,38.33
2018-12-13T17:56:57.868Z,44.73
2018-12-13T17:59:40.137Z,42.10
2018-12-13T18:02:22.152Z,37.80
2018-12-13T18:05:04.308Z,38.23
2018-12-13T18:07:46.173Z,38.60
2018-12-13T18:10:29.527Z,38.20
2018-12-13T18:13:13.350Z,39.55
2018-12-13T18:15:56.124Z,42.62
2018-12-13T18:18:37.903Z,39.65
2018-12-13T18:21:19.739Z,38.98
2018-12-13T18:24:15.018Z,38.67
2018-12-13T18:26:57.278Z,44.90
2018-12-13T18:29:38.525Z,41.15
2018-12-13T18:32:20.476Z,39.60
2018-12-13T18:35:02.346Z,43.78
2018-12-13T18:37:43.833Z,39.48
2018-12-13T18:40:28.941Z,42.08
2018-12-13T18:43:19.405Z,43.20
2018-12-13T18:46:13.387Z,40.12
2018-12-13T18:49:00.064Z,44.60
2018-12-13T18:51:47.361Z,39.67
2018-12-13T18:54:33.842Z,40.38
2018-12-13T19:00:16.710Z,42.73
2018-12-13T19:03:05.620Z,42.88
2018-12-13T19:05:51.923Z,41.50
2018-12-13T19:08:43.151Z,42.78
2018-12-13T19:11:34.785Z,39.48
2018-12-13T19:14:18.080Z,48.80
2018-12-13T19:16:59.971Z,37.88
2018-12-13T19:19:41.400Z,44.60
2018-12-13T19:22:22.930Z,42.15
2018-12-13T19:25:05.764Z,37.45
2018-12-13T19:27:49.305Z,38.30
2018-12-13T19:30:30.986Z,37.23
2018-12-13T19:33:12.295Z,36.00
2018-12-13T19:35:53.719Z,40.08
2018-12-13T19:38:35.243Z,36.50
2018-12-13T19:41:17.069Z,36.90
2018-12-13T19:43:59.588Z,38.50
2018-12-13T19:46:41.524Z,44.15
2018-12-13T19:49:23.846Z,41.33
2018-12-13T19:52:06.143Z,40.88
2018-12-13T19:54:49.090Z,41.20
2018-12-13T19:57:31.793Z,41.40
2018-12-13T20:00:14.337Z,42.38
2018-12-13T20:02:55.561Z,43.50
2018-12-13T20:05:37.138Z,40.45
2018-12-13T20:08:19.704Z,42.45
2018-12-13T20:11:01.924Z,34.83
2018-12-13T20:13:43.344Z,40.80
2018-12-13T20:16:25.082Z,38.25
2018-12-13T20:19:08.390Z,38.58
2018-12-13T20:21:50.442Z,38.20
2018-12-13T20:24:31.879Z,36.17
2018-12-13T20:27:13.146Z,38.58
2018-12-13T20:29:54.557Z,32.42
2018-12-13T20:32:36.193Z,33.67
2018-12-13T20:35:18.684Z,36.73
2018-12-13T20:38:00.007Z,37.63
2018-12-13T20:40:41.368Z,36.05
2018-12-13T20:43:23.305Z,35.30
2018-12-13T20:46:05.291Z,37.08
2018-12-13T20:48:47.623Z,37.78
2018-12-13T20:51:30.299Z,40.52
2018-12-13T20:54:12.644Z,35.35
2018-12-13T20:56:54.302Z,32.48
2018-12-13T20:59:35.931Z,31.55
2018-12-13T21:02:17.701Z,37.63
2018-12-13T21:04:58.964Z,33.70
2018-12-13T21:07:40.275Z,33.40
2018-12-13T21:10:21.969Z,34.48
2018-12-13T21:13:04.802Z,32.90
2018-12-13T21:15:46.829Z,37.85
2018-12-13T21:18:29.303Z,34.98
2018-12-13T21:21:10.639Z,35.10
2018-12-13T21:23:53.422Z,32.47
2018-12-13T21:26:35.339Z,38.28
2018-12-13T21:29:17.251Z,36.80
2018-12-13T21:31:58.511Z,34.43
2018-12-13T21:34:40.646Z,36.83
2018-12-13T21:37:22.116Z,35.17
2018-12-13T21:40:04.570Z,31.23
2018-12-13T21:42:46.476Z,34.08
2018-12-13T21:45:28.861Z,35.05
2018-12-13T21:48:10.458Z,34.38
2018-12-13T21:50:52.068Z,33.40
2018-12-13T21:53:34.037Z,36.58
2018-12-13T21:56:16.588Z,33.33
2018-12-13T21:59:03.513Z,34.75
2018-12-13T22:01:42.493Z,29.95
2018-12-13T22:04:24.288Z,35.43
2018-12-13T22:07:05.619Z,37.40
2018-12-13T22:09:47.380Z,37.33
2018-12-13T22:12:29.458Z,39.45
2018-12-13T22:15:12.804Z,32.53
2018-12-13T22:17:55.325Z,34.90
2018-12-13T22:20:36.993Z,37.30
2018-12-13T22:23:18.274Z,34.10
2018-12-13T22:25:59.888Z,34.38
2018-12-13T22:28:41.880Z,35.13
2018-12-13T22:31:23.991Z,36.98
2018-12-13T22:34:05.989Z,33.38
2018-12-13T22:36:48.045Z,37.83
2018-12-13T22:39:30.053Z,32.25
2018-12-13T22:42:12.393Z,34.55
2018-12-13T22:44:53.961Z,35.00
2018-12-13T22:47:35.683Z,35.93
2018-12-13T22:50:17.645Z,37.50
2018-12-13T22:52:58.999Z,39.83
2018-12-13T22:55:41.241Z,39.70
2018-12-13T22:58:23.034Z,36.00
2018-12-13T23:01:05.473Z,42.30
2018-12-13T23:03:49.049Z,36.57
2018-12-13T23:06:30.973Z,37.60
2018-12-13T23:09:12.263Z,37.55
2018-12-13T23:11:54.658Z,35.90
2018-12-13T23:14:36.147Z,39.35
2018-12-13T23:17:17.935Z,35.70
2018-12-13T23:19:59.708Z,37.00
2018-12-13T23:22:41.977Z,42.43
2018-12-13T23:25:23.539Z,43.23
2018-12-13T23:28:04.984Z,37.90
2018-12-13T23:30:47.715Z,40.30
2018-12-13T23:33:29.022Z,38.55
2018-12-13T23:36:10.736Z,43.40
2018-12-13T23:38:52.384Z,43.25
2018-12-13T23:41:39.226Z,40.35
2018-12-13T23:44:18.012Z,41.40
2018-12-13T23:46:59.604Z,37.83
2018-12-13T23:49:41.107Z,40.83
2018-12-13T23:52:23.694Z,39.78
2018-12-13T23:55:06.179Z,41.42
2018-12-13T23:57:47.722Z,42.88
